sensor_id;sensor_type;location;lat;lon;timestamp;temperature;humidity
31074;DHT22;17730;53.552;9.940;2023-02-05T00:01:50;0.50;1.00
31074;DHT22;17730;53.552;9.940;2023-02-05T00:04:16;0.50;1.00
31074;DHT22;17730;53.552;9.940;2023-02-05T00:06:41;0.50;1.00
31074;DHT22;17730;53.552;9.940;2023-02-05T00:09:07;0.40;1.00
31074;DHT22;17730;53.552;9.940;2023-02-05T00:11:33;0.40;1.00
31074;DHT22;17730;53.552;9.940;2023-02-05T00:13:58;0.40;1.00
31074;DHT22;17730;53.552;9.940;2023-02-05T00:16:24;0.40;1.00
31074;DHT22;17730;53.552;9.940;2023-02-05T00:18:53;0.40;1.00
31074;DHT22;17730;53.552;9.940;2023-02-05T00:21:21;0.40;1.00
31074;DHT22;17730;53.552;9.940;2023-02-05T00:23:48;0.40;1.00
31074;DHT22;17730;53.552;9.940;2023-02-05T00:26:14;0.40;1.00
31074;DHT22;17730;53.552;9.940;2023-02-05T00:28:40;0.40;1.00
31074;DHT22;17730;53.552;9.940;2023-02-05T00:31:17;0.30;1.00
31074;DHT22;17730;53.552;9.940;2023-02-05T00:33:45;0.40;1.00
31074;DHT22;17730;53.552;9.940;2023-02-05T00:36:11;0.30;1.00
31074;DHT22;17730;53.552;9.940;2023-02-05T00:38:37;0.30;1.00
31074;DHT22;17730;53.552;9.940;2023-02-05T00:41:02;0.30;1.00
31074;DHT22;17730;53.552;9.940;2023-02-05T00:43:28;0.30;1.00
31074;DHT22;17730;53.552;9.940;2023-02-05T00:45:54;0.30;1.00
31074;DHT22;17730;53.552;9.940;2023-02-05T00:48:19;0.30;1.00
31074;DHT22;17730;53.552;9.940;2023-02-05T00:50:47;0.30;1.00
31074;DHT22;17730;53.552;9.940;2023-02-05T00:53:13;0.30;1.00
31074;DHT22;17730;53.552;9.940;2023-02-05T00:55:38;0.30;1.00
31074;DHT22;17730;53.552;9.940;2023-02-05T00:58:04;0.30;1.00
31074;DHT22;17730;53.552;9.940;2023-02-05T01:00:30;0.20;1.00
31074;DHT22;17730;53.552;9.940;2023-02-05T01:02:57;0.20;1.00
31074;DHT22;17730;53.552;9.940;2023-02-05T01:05:22;0.20;1.00
31074;DHT22;17730;53.552;9.940;2023-02-05T01:07:48;0.20;1.00
31074;DHT22;17730;53.552;9.940;2023-02-05T01:10:14;0.20;1.00
31074;DHT22;17730;53.552;9.940;2023-02-05T01:12:39;0.10;1.00
31074;DHT22;17730;53.552;9.940;2023-02-05T01:15:06;0.10;1.00
31074;DHT22;17730;53.552;9.940;2023-02-05T01:17:32;0.10;1.00
31074;DHT22;17730;53.552;9.940;2023-02-05T01:19:58;0.10;1.00
31074;DHT22;17730;53.552;9.940;2023-02-05T01:22:24;0.10;1.00
31074;DHT22;17730;53.552;9.940;2023-02-05T01:24:50;0.10;1.00
31074;DHT22;17730;53.552;9.940;2023-02-05T01:27:15;0.10;1.00
31074;DHT22;17730;53.552;9.940;2023-02-05T01:29:41;0.10;1.00
31074;DHT22;17730;53.552;9.940;2023-02-05T01:32:06;0.10;1.00
31074;DHT22;17730;53.552;9.940;2023-02-05T01:34:32;0.10;1.00
31074;DHT22;17730;53.552;9.940;2023-02-05T01:36:58;0.10;1.00
31074;DHT22;17730;53.552;9.940;2023-02-05T01:39:23;0.10;1.00
31074;DHT22;17730;53.552;9.940;2023-02-05T01:41:49;0.10;1.00
31074;DHT22;17730;53.552;9.940;2023-02-05T01:44:17;0.00;1.00
31074;DHT22;17730;53.552;9.940;2023-02-05T01:46:46;0.10;1.00
31074;DHT22;17730;53.552;9.940;2023-02-05T01:51:54;0.00;1.00
31074;DHT22;17730;53.552;9.940;2023-02-05T01:54:24;0.10;1.00
31074;DHT22;17730;53.552;9.940;2023-02-05T01:57:03;0.10;1.00
31074;DHT22;17730;53.552;9.940;2023-02-05T01:59:32;0.10;1.00
31074;DHT22;17730;53.552;9.940;2023-02-05T02:01:59;0.10;1.00
31074;DHT22;17730;53.552;9.940;2023-02-05T02:07:04;0.10;1.00
31074;DHT22;17730;53.552;9.940;2023-02-05T02:09:31;0.10;1.00
31074;DHT22;17730;53.552;9.940;2023-02-05T02:11:57;0.10;1.00
31074;DHT22;17730;53.552;9.940;2023-02-05T02:14:25;0.10;1.00
31074;DHT22;17730;53.552;9.940;2023-02-05T02:16:52;0.20;1.00
31074;DHT22;17730;53.552;9.940;2023-02-05T02:19:42;0.20;1.00
31074;DHT22;17730;53.552;9.940;2023-02-05T02:28:35;0.30;1.00
31074;DHT22;17730;53.552;9.940;2023-02-05T02:31:08;0.40;1.00
31074;DHT22;17730;53.552;9.940;2023-02-05T02:34:08;0.40;1.00
31074;DHT22;17730;53.552;9.940;2023-02-05T02:36:37;0.50;1.00
31074;DHT22;17730;53.552;9.940;2023-02-05T02:39:14;0.60;1.00
31074;DHT22;17730;53.552;9.940;2023-02-05T02:41:56;0.60;1.00
31074;DHT22;17730;53.552;9.940;2023-02-05T02:44:33;0.60;1.00
31074;DHT22;17730;53.552;9.940;2023-02-05T02:47:11;0.60;1.00
31074;DHT22;17730;53.552;9.940;2023-02-05T02:49:41;0.70;99.90
31074;DHT22;17730;53.552;9.940;2023-02-05T02:52:11;0.70;99.90
31074;DHT22;17730;53.552;9.940;2023-02-05T02:54:39;0.60;99.90
31074;DHT22;17730;53.552;9.940;2023-02-05T02:57:06;0.60;99.90
31074;DHT22;17730;53.552;9.940;2023-02-05T02:59:34;0.60;99.90
31074;DHT22;17730;53.552;9.940;2023-02-05T03:02:04;0.60;99.90
31074;DHT22;17730;53.552;9.940;2023-02-05T03:04:37;0.60;99.90
31074;DHT22;17730;53.552;9.940;2023-02-05T03:07:25;0.60;99.90
31074;DHT22;17730;53.552;9.940;2023-02-05T03:10:00;0.60;99.90
31074;DHT22;17730;53.552;9.940;2023-02-05T03:12:26;0.60;99.90
31074;DHT22;17730;53.552;9.940;2023-02-05T03:14:52;0.60;99.90
31074;DHT22;17730;53.552;9.940;2023-02-05T03:17:18;0.60;99.90
31074;DHT22;17730;53.552;9.940;2023-02-05T03:19:46;0.50;99.90
31074;DHT22;17730;53.552;9.940;2023-02-05T03:22:13;0.60;99.90
31074;DHT22;17730;53.552;9.940;2023-02-05T03:24:39;0.60;99.90
31074;DHT22;17730;53.552;9.940;2023-02-05T03:27:05;0.60;99.90
31074;DHT22;17730;53.552;9.940;2023-02-05T03:29:34;0.60;99.90
31074;DHT22;17730;53.552;9.940;2023-02-05T03:35:01;0.60;99.90
31074;DHT22;17730;53.552;9.940;2023-02-05T03:40:31;0.60;99.90
31074;DHT22;17730;53.552;9.940;2023-02-05T03:46:11;0.60;99.90
31074;DHT22;17730;53.552;9.940;2023-02-05T03:56:20;0.60;99.90
31074;DHT22;17730;53.552;9.940;2023-02-05T03:58:49;0.60;99.90
31074;DHT22;17730;53.552;9.940;2023-02-05T04:01:16;0.60;99.90
31074;DHT22;17730;53.552;9.940;2023-02-05T04:03:41;0.70;99.90
31074;DHT22;17730;53.552;9.940;2023-02-05T04:06:07;0.70;99.90
31074;DHT22;17730;53.552;9.940;2023-02-05T04:08:33;0.70;99.90
31074;DHT22;17730;53.552;9.940;2023-02-05T04:10:58;0.80;99.90
31074;DHT22;17730;53.552;9.940;2023-02-05T04:13:24;0.80;99.90
31074;DHT22;17730;53.552;9.940;2023-02-05T04:15:50;0.80;99.90
31074;DHT22;17730;53.552;9.940;2023-02-05T04:18:16;0.90;99.90
31074;DHT22;17730;53.552;9.940;2023-02-05T04:20:42;1.00;99.90
31074;DHT22;17730;53.552;9.940;2023-02-05T04:23:08;1.00;99.90
31074;DHT22;17730;53.552;9.940;2023-02-05T04:25:36;1.10;99.90
31074;DHT22;17730;53.552;9.940;2023-02-05T04:28:02;1.10;99.90
31074;DHT22;17730;53.552;9.940;2023-02-05T04:30:29;1.10;99.90
31074;DHT22;17730;53.552;9.940;2023-02-05T04:32:54;1.10;99.90
31074;DHT22;17730;53.552;9.940;2023-02-05T04:35:20;1.10;99.90
31074;DHT22;17730;53.552;9.940;2023-02-05T04:37:45;1.10;99.90
31074;DHT22;17730;53.552;9.940;2023-02-05T04:40:11;1.10;99.90
31074;DHT22;17730;53.552;9.940;2023-02-05T04:42:37;1.20;99.90
31074;DHT22;17730;53.552;9.940;2023-02-05T04:45:02;1.20;99.90
31074;DHT22;17730;53.552;9.940;2023-02-05T04:47:30;1.20;99.90
31074;DHT22;17730;53.552;9.940;2023-02-05T04:49:56;1.20;99.90
31074;DHT22;17730;53.552;9.940;2023-02-05T04:52:21;1.20;99.90
31074;DHT22;17730;53.552;9.940;2023-02-05T04:54:47;1.20;99.90
31074;DHT22;17730;53.552;9.940;2023-02-05T04:57:12;1.20;99.90
31074;DHT22;17730;53.552;9.940;2023-02-05T04:59:38;1.10;99.90
31074;DHT22;17730;53.552;9.940;2023-02-05T05:02:03;1.10;99.90
31074;DHT22;17730;53.552;9.940;2023-02-05T05:04:29;1.20;99.90
31074;DHT22;17730;53.552;9.940;2023-02-05T05:06:54;1.10;99.90
31074;DHT22;17730;53.552;9.940;2023-02-05T05:09:20;1.10;99.90
31074;DHT22;17730;53.552;9.940;2023-02-05T05:11:51;1.10;99.90
31074;DHT22;17730;53.552;9.940;2023-02-05T05:14:17;1.10;99.90
31074;DHT22;17730;53.552;9.940;2023-02-05T05:16:43;1.20;99.90
31074;DHT22;17730;53.552;9.940;2023-02-05T05:19:08;1.10;99.90
31074;DHT22;17730;53.552;9.940;2023-02-05T05:21:34;1.20;99.90
31074;DHT22;17730;53.552;9.940;2023-02-05T05:23:59;1.20;99.90
31074;DHT22;17730;53.552;9.940;2023-02-05T05:26:25;1.10;99.90
31074;DHT22;17730;53.552;9.940;2023-02-05T05:28:54;1.10;99.90
31074;DHT22;17730;53.552;9.940;2023-02-05T05:31:20;1.10;99.90
31074;DHT22;17730;53.552;9.940;2023-02-05T05:33:46;1.10;99.90
31074;DHT22;17730;53.552;9.940;2023-02-05T05:36:11;1.10;99.90
31074;DHT22;17730;53.552;9.940;2023-02-05T05:38:37;1.10;99.90
31074;DHT22;17730;53.552;9.940;2023-02-05T05:41:03;1.10;99.90
31074;DHT22;17730;53.552;9.940;2023-02-05T05:43:49;1.20;99.90
31074;DHT22;17730;53.552;9.940;2023-02-05T05:46:21;1.20;99.90
31074;DHT22;17730;53.552;9.940;2023-02-05T05:48:56;1.20;99.90
31074;DHT22;17730;53.552;9.940;2023-02-05T05:51:23;1.20;99.90
31074;DHT22;17730;53.552;9.940;2023-02-05T05:53:49;1.20;99.90
31074;DHT22;17730;53.552;9.940;2023-02-05T05:56:15;1.20;99.90
31074;DHT22;17730;53.552;9.940;2023-02-05T05:58:41;1.20;99.90
31074;DHT22;17730;53.552;9.940;2023-02-05T06:01:08;1.20;99.90
31074;DHT22;17730;53.552;9.940;2023-02-05T06:03:34;1.20;99.90
31074;DHT22;17730;53.552;9.940;2023-02-05T06:06:04;1.20;99.90
31074;DHT22;17730;53.552;9.940;2023-02-05T06:08:30;1.20;99.90
31074;DHT22;17730;53.552;9.940;2023-02-05T06:10:56;1.10;99.90
31074;DHT22;17730;53.552;9.940;2023-02-05T06:13:22;1.10;99.90
31074;DHT22;17730;53.552;9.940;2023-02-05T06:15:48;1.20;99.90
31074;DHT22;17730;53.552;9.940;2023-02-05T06:18:15;1.20;99.90
31074;DHT22;17730;53.552;9.940;2023-02-05T06:20:40;1.20;99.90
31074;DHT22;17730;53.552;9.940;2023-02-05T06:23:06;1.10;99.90
31074;DHT22;17730;53.552;9.940;2023-02-05T06:25:31;1.10;99.90
31074;DHT22;17730;53.552;9.940;2023-02-05T06:27:57;1.10;99.90
31074;DHT22;17730;53.552;9.940;2023-02-05T06:30:22;1.10;99.90
31074;DHT22;17730;53.552;9.940;2023-02-05T06:32:48;1.00;99.90
31074;DHT22;17730;53.552;9.940;2023-02-05T06:35:14;1.00;99.90
31074;DHT22;17730;53.552;9.940;2023-02-05T06:37:39;1.00;99.90
31074;DHT22;17730;53.552;9.940;2023-02-05T06:40:05;1.00;99.90
31074;DHT22;17730;53.552;9.940;2023-02-05T06:42:31;1.00;99.90
31074;DHT22;17730;53.552;9.940;2023-02-05T06:44:56;1.00;99.90
31074;DHT22;17730;53.552;9.940;2023-02-05T06:47:22;1.00;99.90
31074;DHT22;17730;53.552;9.940;2023-02-05T06:49:47;1.00;99.90
31074;DHT22;17730;53.552;9.940;2023-02-05T06:52:13;1.10;99.90
31074;DHT22;17730;53.552;9.940;2023-02-05T06:54:38;1.10;99.90
31074;DHT22;17730;53.552;9.940;2023-02-05T06:57:04;1.10;99.90
31074;DHT22;17730;53.552;9.940;2023-02-05T06:59:29;1.10;99.90
31074;DHT22;17730;53.552;9.940;2023-02-05T07:01:55;1.10;99.90
31074;DHT22;17730;53.552;9.940;2023-02-05T07:04:21;1.10;99.90
31074;DHT22;17730;53.552;9.940;2023-02-05T07:06:46;1.10;99.90
31074;DHT22;17730;53.552;9.940;2023-02-05T07:09:12;1.10;99.90
31074;DHT22;17730;53.552;9.940;2023-02-05T07:11:37;1.20;99.90
31074;DHT22;17730;53.552;9.940;2023-02-05T07:14:03;1.20;99.90
31074;DHT22;17730;53.552;9.940;2023-02-05T07:16:29;1.10;99.90
31074;DHT22;17730;53.552;9.940;2023-02-05T07:18:56;1.10;99.90
31074;DHT22;17730;53.552;9.940;2023-02-05T07:21:21;1.00;99.90
31074;DHT22;17730;53.552;9.940;2023-02-05T07:23:47;1.00;99.90
31074;DHT22;17730;53.552;9.940;2023-02-05T07:26:14;1.00;99.90
31074;DHT22;17730;53.552;9.940;2023-02-05T07:28:41;1.00;99.90
31074;DHT22;17730;53.552;9.940;2023-02-05T07:31:09;1.00;99.90
31074;DHT22;17730;53.552;9.940;2023-02-05T07:33:35;1.00;99.90
31074;DHT22;17730;53.552;9.940;2023-02-05T07:36:06;1.00;99.90
31074;DHT22;17730;53.552;9.940;2023-02-05T07:38:32;1.00;99.90
31074;DHT22;17730;53.552;9.940;2023-02-05T07:40:57;1.00;99.90
31074;DHT22;17730;53.552;9.940;2023-02-05T07:43:23;1.00;99.90
31074;DHT22;17730;53.552;9.940;2023-02-05T07:45:56;1.00;99.90
31074;DHT22;17730;53.552;9.940;2023-02-05T07:48:22;1.00;99.90
31074;DHT22;17730;53.552;9.940;2023-02-05T07:50:47;1.00;99.90
31074;DHT22;17730;53.552;9.940;2023-02-05T07:53:13;1.00;99.90
31074;DHT22;17730;53.552;9.940;2023-02-05T07:55:38;1.00;99.90
31074;DHT22;17730;53.552;9.940;2023-02-05T07:58:04;1.00;99.90
31074;DHT22;17730;53.552;9.940;2023-02-05T08:00:29;1.10;99.90
31074;DHT22;17730;53.552;9.940;2023-02-05T08:02:55;1.10;99.90
31074;DHT22;17730;53.552;9.940;2023-02-05T08:05:21;1.10;99.90
31074;DHT22;17730;53.552;9.940;2023-02-05T08:07:46;1.10;99.90
31074;DHT22;17730;53.552;9.940;2023-02-05T08:10:13;1.10;99.90
31074;DHT22;17730;53.552;9.940;2023-02-05T08:12:39;1.10;99.90
31074;DHT22;17730;53.552;9.940;2023-02-05T08:15:04;1.10;99.90
31074;DHT22;17730;53.552;9.940;2023-02-05T08:17:30;1.20;99.90
31074;DHT22;17730;53.552;9.940;2023-02-05T08:19:56;1.30;99.90
31074;DHT22;17730;53.552;9.940;2023-02-05T08:22:24;1.30;99.90
31074;DHT22;17730;53.552;9.940;2023-02-05T08:24:49;1.40;99.90
31074;DHT22;17730;53.552;9.940;2023-02-05T08:27:15;1.50;99.90
31074;DHT22;17730;53.552;9.940;2023-02-05T08:29:40;1.60;99.90
31074;DHT22;17730;53.552;9.940;2023-02-05T08:32:06;1.60;99.90
31074;DHT22;17730;53.552;9.940;2023-02-05T08:34:32;1.70;99.90
31074;DHT22;17730;53.552;9.940;2023-02-05T08:36:58;1.70;99.90
31074;DHT22;17730;53.552;9.940;2023-02-05T08:39:24;1.80;99.90
31074;DHT22;17730;53.552;9.940;2023-02-05T08:41:50;1.80;99.90
31074;DHT22;17730;53.552;9.940;2023-02-05T08:44:16;1.90;99.90
31074;DHT22;17730;53.552;9.940;2023-02-05T08:46:41;2.00;99.90
31074;DHT22;17730;53.552;9.940;2023-02-05T08:49:07;2.00;99.90
31074;DHT22;17730;53.552;9.940;2023-02-05T08:51:32;2.00;99.90
31074;DHT22;17730;53.552;9.940;2023-02-05T08:54:00;2.00;99.90
31074;DHT22;17730;53.552;9.940;2023-02-05T08:56:25;2.00;99.90
31074;DHT22;17730;53.552;9.940;2023-02-05T08:58:51;2.10;99.90
31074;DHT22;17730;53.552;9.940;2023-02-05T09:01:17;2.10;99.90
31074;DHT22;17730;53.552;9.940;2023-02-05T09:03:43;2.10;99.90
31074;DHT22;17730;53.552;9.940;2023-02-05T09:06:12;2.20;99.90
31074;DHT22;17730;53.552;9.940;2023-02-05T09:08:38;2.30;99.90
31074;DHT22;17730;53.552;9.940;2023-02-05T09:11:04;2.30;99.90
31074;DHT22;17730;53.552;9.940;2023-02-05T09:13:31;2.40;99.90
31074;DHT22;17730;53.552;9.940;2023-02-05T09:15:56;2.40;99.90
31074;DHT22;17730;53.552;9.940;2023-02-05T09:18:22;2.40;99.90
31074;DHT22;17730;53.552;9.940;2023-02-05T09:20:49;2.50;99.90
31074;DHT22;17730;53.552;9.940;2023-02-05T09:23:16;2.60;99.90
31074;DHT22;17730;53.552;9.940;2023-02-05T09:25:43;2.60;99.90
31074;DHT22;17730;53.552;9.940;2023-02-05T09:28:11;2.60;99.90
31074;DHT22;17730;53.552;9.940;2023-02-05T09:30:42;2.60;99.90
31074;DHT22;17730;53.552;9.940;2023-02-05T09:33:09;2.70;99.90
31074;DHT22;17730;53.552;9.940;2023-02-05T09:35:35;2.70;99.90
31074;DHT22;17730;53.552;9.940;2023-02-05T09:38:00;2.80;99.90
31074;DHT22;17730;53.552;9.940;2023-02-05T09:40:57;2.80;99.90
31074;DHT22;17730;53.552;9.940;2023-02-05T09:43:48;2.90;99.90
31074;DHT22;17730;53.552;9.940;2023-02-05T09:46:38;2.90;99.90
31074;DHT22;17730;53.552;9.940;2023-02-05T09:51:56;3.00;99.90
31074;DHT22;17730;53.552;9.940;2023-02-05T09:54:25;3.00;99.90
31074;DHT22;17730;53.552;9.940;2023-02-05T09:56:55;3.00;99.90
31074;DHT22;17730;53.552;9.940;2023-02-05T09:59:24;3.00;99.90
31074;DHT22;17730;53.552;9.940;2023-02-05T10:01:57;3.00;99.90
31074;DHT22;17730;53.552;9.940;2023-02-05T10:04:23;3.10;99.90
31074;DHT22;17730;53.552;9.940;2023-02-05T10:07:16;3.20;99.90
31074;DHT22;17730;53.552;9.940;2023-02-05T10:10:25;3.20;99.90
31074;DHT22;17730;53.552;9.940;2023-02-05T10:18:27;3.30;99.90
31074;DHT22;17730;53.552;9.940;2023-02-05T10:21:06;3.40;99.90
31074;DHT22;17730;53.552;9.940;2023-02-05T10:24:05;3.50;99.90
31074;DHT22;17730;53.552;9.940;2023-02-05T10:26:50;3.50;99.90
31074;DHT22;17730;53.552;9.940;2023-02-05T10:34:52;3.80;99.90
31074;DHT22;17730;53.552;9.940;2023-02-05T10:37:26;3.90;99.90
31074;DHT22;17730;53.552;9.940;2023-02-05T10:39:55;4.00;99.90
31074;DHT22;17730;53.552;9.940;2023-02-05T10:42:32;4.10;99.90
31074;DHT22;17730;53.552;9.940;2023-02-05T10:45:13;4.10;99.90
31074;DHT22;17730;53.552;9.940;2023-02-05T10:50:41;4.30;99.90
31074;DHT22;17730;53.552;9.940;2023-02-05T10:53:09;4.30;99.90
31074;DHT22;17730;53.552;9.940;2023-02-05T10:55:35;4.40;99.90
31074;DHT22;17730;53.552;9.940;2023-02-05T10:58:20;4.50;99.90
31074;DHT22;17730;53.552;9.940;2023-02-05T11:00:48;4.50;99.90
31074;DHT22;17730;53.552;9.940;2023-02-05T11:03:16;4.50;99.90
31074;DHT22;17730;53.552;9.940;2023-02-05T11:05:42;4.50;99.90
31074;DHT22;17730;53.552;9.940;2023-02-05T11:10:56;4.50;99.90
31074;DHT22;17730;53.552;9.940;2023-02-05T11:13:23;4.50;99.90
31074;DHT22;17730;53.552;9.940;2023-02-05T11:16:07;4.60;99.90
31074;DHT22;17730;53.552;9.940;2023-02-05T11:18:43;4.60;99.90
31074;DHT22;17730;53.552;9.940;2023-02-05T11:21:10;4.70;99.90
31074;DHT22;17730;53.552;9.940;2023-02-05T11:23:37;4.70;99.90
31074;DHT22;17730;53.552;9.940;2023-02-05T11:26:21;4.70;99.90
31074;DHT22;17730;53.552;9.940;2023-02-05T11:28:48;4.70;99.90
31074;DHT22;17730;53.552;9.940;2023-02-05T11:31:33;4.70;99.90
31074;DHT22;17730;53.552;9.940;2023-02-05T11:36:36;4.90;99.90
31074;DHT22;17730;53.552;9.940;2023-02-05T11:39:03;4.90;99.90
31074;DHT22;17730;53.552;9.940;2023-02-05T11:41:35;4.90;99.90
31074;DHT22;17730;53.552;9.940;2023-02-05T11:44:25;4.90;99.90
31074;DHT22;17730;53.552;9.940;2023-02-05T11:46:52;4.90;99.90
31074;DHT22;17730;53.552;9.940;2023-02-05T11:49:26;4.90;99.90
31074;DHT22;17730;53.552;9.940;2023-02-05T11:51:54;4.90;99.90
31074;DHT22;17730;53.552;9.940;2023-02-05T11:54:29;4.90;99.90
31074;DHT22;17730;53.552;9.940;2023-02-05T11:57:07;5.00;99.90
31074;DHT22;17730;53.552;9.940;2023-02-05T12:00:13;5.00;99.90
31074;DHT22;17730;53.552;9.940;2023-02-05T12:02:44;5.10;99.90
31074;DHT22;17730;53.552;9.940;2023-02-05T12:10:23;5.10;99.90
31074;DHT22;17730;53.552;9.940;2023-02-05T12:13:11;5.10;99.90
31074;DHT22;17730;53.552;9.940;2023-02-05T12:18:29;5.10;99.90
31074;DHT22;17730;53.552;9.940;2023-02-05T12:21:11;5.20;99.90
31074;DHT22;17730;53.552;9.940;2023-02-05T12:24:14;5.30;99.90
31074;DHT22;17730;53.552;9.940;2023-02-05T12:26:44;5.30;99.90
31074;DHT22;17730;53.552;9.940;2023-02-05T12:32:12;5.20;99.90
31074;DHT22;17730;53.552;9.940;2023-02-05T12:37:42;5.10;99.90
31074;DHT22;17730;53.552;9.940;2023-02-05T12:43:04;5.10;99.90
31074;DHT22;17730;53.552;9.940;2023-02-05T12:46:04;5.10;99.90
31074;DHT22;17730;53.552;9.940;2023-02-05T12:53:49;5.40;99.90
31074;DHT22;17730;53.552;9.940;2023-02-05T12:58:58;5.70;99.90
31074;DHT22;17730;53.552;9.940;2023-02-05T13:01:53;5.70;99.90
31074;DHT22;17730;53.552;9.940;2023-02-05T13:04:42;5.60;99.90
31074;DHT22;17730;53.552;9.940;2023-02-05T13:09:52;5.50;99.90
31074;DHT22;17730;53.552;9.940;2023-02-05T13:12:22;5.40;99.90
31074;DHT22;17730;53.552;9.940;2023-02-05T13:15:06;5.40;99.90
31074;DHT22;17730;53.552;9.940;2023-02-05T13:17:39;5.40;99.90
31074;DHT22;17730;53.552;9.940;2023-02-05T13:20:25;5.40;99.90
31074;DHT22;17730;53.552;9.940;2023-02-05T13:23:12;5.50;99.90
31074;DHT22;17730;53.552;9.940;2023-02-05T13:25:58;5.60;99.90
31074;DHT22;17730;53.552;9.940;2023-02-05T13:29:06;5.60;99.90
31074;DHT22;17730;53.552;9.940;2023-02-05T13:31:39;5.70;99.90
31074;DHT22;17730;53.552;9.940;2023-02-05T13:34:11;5.70;99.90
31074;DHT22;17730;53.552;9.940;2023-02-05T13:36:50;5.60;99.90
31074;DHT22;17730;53.552;9.940;2023-02-05T13:42:16;5.60;99.90
31074;DHT22;17730;53.552;9.940;2023-02-05T13:59:17;5.70;99.90
31074;DHT22;17730;53.552;9.940;2023-02-05T14:01:40;5.60;99.90
31074;DHT22;17730;53.552;9.940;2023-02-05T14:04:17;5.50;99.90
31074;DHT22;17730;53.552;9.940;2023-02-05T14:06:54;5.50;99.90
31074;DHT22;17730;53.552;9.940;2023-02-05T14:11:57;5.60;99.90
31074;DHT22;17730;53.552;9.940;2023-02-05T14:14:35;5.60;99.90
31074;DHT22;17730;53.552;9.940;2023-02-05T14:17:50;5.60;99.90
31074;DHT22;17730;53.552;9.940;2023-02-05T14:19:49;5.60;99.90
31074;DHT22;17730;53.552;9.940;2023-02-05T14:22:41;5.50;99.90
31074;DHT22;17730;53.552;9.940;2023-02-05T14:33:34;5.50;99.90
31074;DHT22;17730;53.552;9.940;2023-02-05T14:38:58;5.40;99.90
31074;DHT22;17730;53.552;9.940;2023-02-05T14:46:57;5.50;99.90
31074;DHT22;17730;53.552;9.940;2023-02-05T14:52:00;5.30;99.90
31074;DHT22;17730;53.552;9.940;2023-02-05T14:54:41;5.30;99.90
31074;DHT22;17730;53.552;9.940;2023-02-05T14:57:09;5.20;99.90
31074;DHT22;17730;53.552;9.940;2023-02-05T14:59:46;5.10;99.90
31074;DHT22;17730;53.552;9.940;2023-02-05T15:13:22;4.90;99.90
31074;DHT22;17730;53.552;9.940;2023-02-05T15:21:21;4.70;99.90
31074;DHT22;17730;53.552;9.940;2023-02-05T15:24:00;4.70;99.90
31074;DHT22;17730;53.552;9.940;2023-02-05T15:29:27;4.70;99.90
31074;DHT22;17730;53.552;9.940;2023-02-05T15:32:04;4.70;99.90
31074;DHT22;17730;53.552;9.940;2023-02-05T15:34:40;4.70;99.90
31074;DHT22;17730;53.552;9.940;2023-02-05T15:37:20;4.70;99.90
31074;DHT22;17730;53.552;9.940;2023-02-05T15:39:56;4.70;99.90
31074;DHT22;17730;53.552;9.940;2023-02-05T15:42:40;4.80;99.90
31074;DHT22;17730;53.552;9.940;2023-02-05T15:48:05;4.70;99.90
31074;DHT22;17730;53.552;9.940;2023-02-05T15:50:33;4.70;99.90
31074;DHT22;17730;53.552;9.940;2023-02-05T15:52:59;4.70;99.90
31074;DHT22;17730;53.552;9.940;2023-02-05T15:55:26;4.70;99.90
31074;DHT22;17730;53.552;9.940;2023-02-05T15:58:03;4.70;99.90
31074;DHT22;17730;53.552;9.940;2023-02-05T16:00:31;4.60;99.90
31074;DHT22;17730;53.552;9.940;2023-02-05T16:03:00;4.50;99.90
31074;DHT22;17730;53.552;9.940;2023-02-05T16:05:28;4.50;99.90
31074;DHT22;17730;53.552;9.940;2023-02-05T16:07:54;4.50;99.90
31074;DHT22;17730;53.552;9.940;2023-02-05T16:10:25;4.50;99.90
31074;DHT22;17730;53.552;9.940;2023-02-05T16:12:57;4.40;99.90
31074;DHT22;17730;53.552;9.940;2023-02-05T16:15:27;4.40;99.90
31074;DHT22;17730;53.552;9.940;2023-02-05T16:17:54;4.40;99.90
31074;DHT22;17730;53.552;9.940;2023-02-05T16:20:29;4.30;99.90
31074;DHT22;17730;53.552;9.940;2023-02-05T16:23:01;4.20;99.90
31074;DHT22;17730;53.552;9.940;2023-02-05T16:25:42;4.10;99.90
31074;DHT22;17730;53.552;9.940;2023-02-05T16:31:24;4.00;99.90
31074;DHT22;17730;53.552;9.940;2023-02-05T16:33:53;4.00;99.90
31074;DHT22;17730;53.552;9.940;2023-02-05T16:36:22;4.00;99.90
31074;DHT22;17730;53.552;9.940;2023-02-05T16:38:50;4.00;99.90
31074;DHT22;17730;53.552;9.940;2023-02-05T16:41:20;4.10;99.90
31074;DHT22;17730;53.552;9.940;2023-02-05T16:43:47;4.10;99.90
31074;DHT22;17730;53.552;9.940;2023-02-05T16:51:32;3.90;99.90
31074;DHT22;17730;53.552;9.940;2023-02-05T16:54:02;3.90;99.90
31074;DHT22;17730;53.552;9.940;2023-02-05T16:56:33;3.90;99.90
31074;DHT22;17730;53.552;9.940;2023-02-05T16:59:02;3.80;99.90
31074;DHT22;17730;53.552;9.940;2023-02-05T17:01:36;3.80;99.90
31074;DHT22;17730;53.552;9.940;2023-02-05T17:04:03;3.80;99.90
31074;DHT22;17730;53.552;9.940;2023-02-05T17:06:34;3.80;99.90
31074;DHT22;17730;53.552;9.940;2023-02-05T17:09:01;3.80;99.90
31074;DHT22;17730;53.552;9.940;2023-02-05T17:11:37;3.70;99.90
31074;DHT22;17730;53.552;9.940;2023-02-05T17:14:30;3.70;99.90
31074;DHT22;17730;53.552;9.940;2023-02-05T17:17:15;3.70;1.00
31074;DHT22;17730;53.552;9.940;2023-02-05T17:19:41;3.60;1.00
31074;DHT22;17730;53.552;9.940;2023-02-05T17:24:42;3.80;1.00
31074;DHT22;17730;53.552;9.940;2023-02-05T17:27:16;3.80;1.00
31074;DHT22;17730;53.552;9.940;2023-02-05T17:29:42;3.70;1.00
31074;DHT22;17730;53.552;9.940;2023-02-05T17:32:14;3.70;1.00
31074;DHT22;17730;53.552;9.940;2023-02-05T17:34:41;3.70;1.00
31074;DHT22;17730;53.552;9.940;2023-02-05T17:37:08;3.60;1.00
31074;DHT22;17730;53.552;9.940;2023-02-05T17:39:33;3.70;1.00
31074;DHT22;17730;53.552;9.940;2023-02-05T17:41:59;3.70;1.00
31074;DHT22;17730;53.552;9.940;2023-02-05T17:44:34;3.80;1.00
31074;DHT22;17730;53.552;9.940;2023-02-05T17:47:02;3.70;1.00
31074;DHT22;17730;53.552;9.940;2023-02-05T17:49:28;3.70;1.00
31074;DHT22;17730;53.552;9.940;2023-02-05T17:51:54;3.70;1.00
31074;DHT22;17730;53.552;9.940;2023-02-05T17:54:22;3.70;1.00
31074;DHT22;17730;53.552;9.940;2023-02-05T17:56:50;3.70;1.00
31074;DHT22;17730;53.552;9.940;2023-02-05T17:59:20;3.70;1.00
31074;DHT22;17730;53.552;9.940;2023-02-05T18:01:46;3.80;1.00
31074;DHT22;17730;53.552;9.940;2023-02-05T18:04:12;3.80;1.00
31074;DHT22;17730;53.552;9.940;2023-02-05T18:06:39;3.70;1.00
31074;DHT22;17730;53.552;9.940;2023-02-05T18:09:05;3.60;1.00
31074;DHT22;17730;53.552;9.940;2023-02-05T18:11:31;3.60;1.00
31074;DHT22;17730;53.552;9.940;2023-02-05T18:13:57;3.50;1.00
31074;DHT22;17730;53.552;9.940;2023-02-05T18:16:23;3.60;1.00
31074;DHT22;17730;53.552;9.940;2023-02-05T18:18:48;3.50;1.00
31074;DHT22;17730;53.552;9.940;2023-02-05T18:21:15;3.50;1.00
31074;DHT22;17730;53.552;9.940;2023-02-05T18:23:41;3.50;1.00
31074;DHT22;17730;53.552;9.940;2023-02-05T18:26:07;3.50;1.00
31074;DHT22;17730;53.552;9.940;2023-02-05T18:28:33;3.50;1.00
31074;DHT22;17730;53.552;9.940;2023-02-05T18:31:04;3.50;1.00
31074;DHT22;17730;53.552;9.940;2023-02-05T18:33:31;3.50;1.00
31074;DHT22;17730;53.552;9.940;2023-02-05T18:36:08;3.50;1.00
31074;DHT22;17730;53.552;9.940;2023-02-05T18:38:35;3.50;1.00